< < Back
Terminal Aerodrome Forecast


Current Version              Previous Versions:   1  2  3  4  5  6  7  8  9  

Terminal Aerodrome Forecast

318
FTUS42 KMLB 211100
TAFDAB
TAF
KDAB 211122Z 2112/2212 34005KT P6SM SCT250
     FM211500 04012G18KT P6SM FEW035 SCT250
     FM220000 05008KT P6SM FEW040 SCT250=



Latest METAR

869
SAUS80 KWBC 220300 RRC
MTRDAB
METAR KDAB 220253Z 07010KT 10SM FEW043 BKN055 BKN100 21/14 A3030 RMK AO2
SLP258 T02060139 53004


USA.gov is the U.S. government's official web portal to all federal, state and local government web resources and services.